Indianola, WA (98342)

6:28 PM PDT on September 04, 2015 (GMT -0700)
Miller Bay Estates | | Change Station
CLOSE
Current Station
Personal Weather Station
Location: Poulsbo, WA
Elevation: 250 ft
Nearby Weather Stations

Elev 250 ft 47.76 °N, 122.55 °W | Updated 1 second ago

Mostly Cloudy
Mostly Cloudy
59.0 °F
Feels Like 59.0 °F
N
0.0
Wind Variable Wind from NNW
Gusts 9.0 mph

Today
High -- | Low -- °F
--% Chance of Precip.
Yesterday
High -- | Low -- °F
Precip. -- in
6:32 AM 7:45 PM
Waning Gibbous, 54% visible
Pressure 30.02 in
Visibility 10.0 miles
Clouds Mostly Cloudy 3200 ft
Dew Point 50 °F
Humidity 71%
Rainfall 0.00 in
Snow Depth Not available.
UV 1 out of 12
Pollen 3.00 out of 12
Air Quality Not available.
Flu Activity Not available.
METAR KPAE 050053Z COR 01005KT 10SM BKN032 14/09 A3001 RMK AO2 SLP164 LTG DSNT NW-NE T01440089
Pressure 30.02 in
Visibility 10.0 miles
Clouds Mostly Cloudy 3200 ft
Dew Point 50 °F
Humidity 71%
Rainfall 0.00 in
Snow Depth Not available.
UV 1 out of 12
Pollen 3.00 out of 12
Air Quality Not available.
Flu Activity Not available.
METAR KPAE 050053Z COR 01005KT 10SM BKN032 14/09 A3001 RMK AO2 SLP164 LTG DSNT NW-NE T01440089

10-Day Weather Forecast

×

Almanac

Astronomy

Sep. 04, 2015 Rise Set
Actual Time
Civil Twilight
Nautical Twilight
Astronomical Twilight
Moon
Length of Visible Light
Length of Day
Tomorrow will be .
, % of the Moon is Illuminated

Today's Extremes

State Highs State Lows

Community

WunderPhotos

Upload Photos

1,852,374 photos uploaded!

WunderBlogs® & News

Nearby

Air Quality

  Air Quality AQ Index Pollutant
Not available.

Snow Depth

Station Depth Elevation

Earthquake Activity

City Distance Mag. Time & Date
Minimum magnitude displayed is 2.5.

Coastal Water Temperatures

Place Temperature

Stations

Nearby Weather Stations

Station Location Temp. Windchill Dew Point Humidity Wind Precip. Elev Updated Type